Time,TemperatureF,DewpointF,PressureIn,WindDirection,WindDirectionDegrees,WindSpeedMPH,WindSpeedGustMPH,Humidity,HourlyPrecipIn,Conditions,Clouds,dailyrainin,SoftwareType,DateUTC
2013-03-11 00:02:00,61.0,55.0,-100.00,NNE,18,0.0,4.0,81,0.00,,,0.03,,2013-03-11 10:02:00,
2013-03-11 00:11:00,60.0,53.0,-100.00,North,9,0.0,2.0,78,0.00,,,0.02,,2013-03-11 10:11:00,
2013-03-11 00:33:00,60.0,53.0,-100.00,North,9,0.0,2.0,78,0.00,,,0.02,,2013-03-11 10:33:00,
2013-03-11 00:42:00,60.0,53.0,-100.00,North,9,0.0,2.0,78,0.00,,,0.02,,2013-03-11 10:42:00,
2013-03-11 00:52:00,60.0,53.0,-100.00,North,9,0.0,2.0,78,0.00,,,0.02,,2013-03-11 10:52:00,
2013-03-11 01:02:00,60.0,53.0,-100.00,North,9,0.0,2.0,78,0.00,,,0.02,,2013-03-11 11:02:00,
2013-03-11 01:11:00,60.0,53.0,-100.00,North,10,0.0,3.0,79,0.00,,,-99.99,,2013-03-11 11:11:00,
2013-03-11 01:33:00,60.0,53.0,-100.00,North,10,0.0,3.0,79,0.00,,,-99.99,,2013-03-11 11:33:00,
2013-03-11 01:43:00,60.0,53.0,-100.00,North,10,0.0,3.0,79,0.00,,,-99.99,,2013-03-11 11:43:00,
2013-03-11 01:53:00,60.0,53.0,-100.00,North,10,0.0,3.0,79,0.00,,,-99.99,,2013-03-11 11:53:00,
2013-03-11 02:02:00,60.0,53.0,-100.00,North,10,0.0,3.0,79,0.00,,,-99.99,,2013-03-11 12:02:00,
2013-03-11 02:11:00,59.0,54.0,-100.00,ENE,62,0.0,2.0,82,0.00,,,-99.99,,2013-03-11 12:11:00,
2013-03-11 02:33:00,59.0,54.0,-100.00,ENE,62,0.0,2.0,82,0.00,,,-99.99,,2013-03-11 12:33:00,
2013-03-11 02:43:00,59.0,54.0,-100.00,ENE,62,0.0,2.0,82,0.00,,,-99.99,,2013-03-11 12:43:00,
2013-03-11 02:53:00,59.0,54.0,-100.00,ENE,62,0.0,2.0,82,0.00,,,-99.99,,2013-03-11 12:53:00,
2013-03-11 03:02:00,59.0,54.0,-100.00,ENE,62,0.0,2.0,82,0.00,,,-99.99,,2013-03-11 13:02:00,
2013-03-11 03:11:00,58.0,53.0,-100.00,East,87,0.0,0.0,84,0.00,,,0.01,,2013-03-11 13:11:00,
2013-03-11 03:33:00,58.0,53.0,-100.00,East,87,0.0,0.0,84,0.00,,,0.01,,2013-03-11 13:33:00,
2013-03-11 03:43:00,58.0,53.0,-100.00,East,87,0.0,0.0,84,0.00,,,0.01,,2013-03-11 13:43:00,
2013-03-11 03:52:00,58.0,53.0,-100.00,East,87,0.0,0.0,84,0.00,,,0.01,,2013-03-11 13:52:00,
2013-03-11 04:01:00,58.0,53.0,-100.00,East,87,0.0,0.0,84,0.00,,,0.01,,2013-03-11 14:01:00,
2013-03-11 04:11:00,57.0,51.0,-100.00,ESE,120,0.0,4.0,80,0.00,,,0.00,,2013-03-11 14:11:00,
2013-03-11 04:43:00,57.0,51.0,-100.00,ESE,120,0.0,4.0,80,0.00,,,0.00,,2013-03-11 14:43:00,
2013-03-11 04:53:00,57.0,51.0,-100.00,ESE,120,0.0,4.0,80,0.00,,,0.00,,2013-03-11 14:53:00,
2013-03-11 05:02:00,57.0,51.0,-100.00,ESE,120,0.0,4.0,80,0.00,,,0.00,,2013-03-11 15:02:00,
2013-03-11 05:11:00,58.0,50.0,-100.00,SE,125,0.0,5.0,76,0.00,,,0.00,,2013-03-11 15:11:00,
2013-03-11 05:32:00,58.0,50.0,-100.00,SE,125,0.0,5.0,76,0.00,,,0.00,,2013-03-11 15:32:00,
2013-03-11 05:43:00,58.0,50.0,-100.00,SE,125,0.0,5.0,76,0.00,,,0.00,,2013-03-11 15:43:00,
2013-03-11 05:53:00,58.0,50.0,-100.00,SE,125,0.0,5.0,76,0.00,,,0.00,,2013-03-11 15:53:00,
2013-03-11 06:02:00,58.0,50.0,-100.00,SE,125,0.0,5.0,76,0.00,,,0.00,,2013-03-11 16:02:00,
2013-03-11 06:11:00,58.0,52.0,-100.00,SE,136,0.0,3.0,79,0.00,,,0.00,,2013-03-11 16:11:00,
2013-03-11 06:32:00,58.0,52.0,-100.00,SE,136,0.0,3.0,79,0.00,,,0.00,,2013-03-11 16:32:00,
2013-03-11 06:43:00,58.0,52.0,-100.00,SE,136,0.0,3.0,79,0.00,,,0.00,,2013-03-11 16:43:00,
2013-03-11 06:52:00,58.0,52.0,-100.00,SE,136,0.0,3.0,79,0.00,,,0.00,,2013-03-11 16:52:00,
2013-03-11 07:02:00,58.0,52.0,-100.00,SE,136,0.0,3.0,79,0.00,,,0.00,,2013-03-11 17:02:00,
2013-03-11 07:11:00,59.0,54.0,-100.00,ENE,78,0.0,3.0,82,0.00,,,-99.99,,2013-03-11 17:11:00,
2013-03-11 07:42:00,59.0,54.0,-100.00,ENE,78,0.0,3.0,82,0.00,,,-99.99,,2013-03-11 17:42:00,
2013-03-11 07:53:00,59.0,54.0,-100.00,ENE,78,0.0,3.0,82,0.00,,,-99.99,,2013-03-11 17:53:00,
2013-03-11 08:02:00,59.0,54.0,-100.00,ENE,78,0.0,3.0,82,0.00,,,-99.99,,2013-03-11 18:02:00,
2013-03-11 08:11:00,62.0,53.0,-100.00,ESE,122,0.0,4.0,72,0.00,,,0.00,,2013-03-11 18:11:00,
2013-03-11 08:33:00,62.0,53.0,-100.00,ESE,122,0.0,4.0,72,0.00,,,0.00,,2013-03-11 18:33:00,
2013-03-11 08:42:00,62.0,53.0,-100.00,ESE,122,0.0,4.0,72,0.00,,,0.00,,2013-03-11 18:42:00,
2013-03-11 08:53:00,62.0,53.0,-100.00,ESE,122,0.0,4.0,72,0.00,,,0.00,,2013-03-11 18:53:00,
2013-03-11 09:02:00,62.0,53.0,-100.00,ESE,122,0.0,4.0,72,0.00,,,0.00,,2013-03-11 19:02:00,
2013-03-11 09:11:00,67.0,55.0,-100.00,NNE,33,0.0,0.0,66,0.00,,,0.00,,2013-03-11 19:11:00,
2013-03-11 09:43:00,67.0,55.0,-100.00,NNE,33,0.0,0.0,66,0.00,,,0.00,,2013-03-11 19:43:00,
2013-03-11 09:52:00,67.0,55.0,-100.00,NNE,33,0.0,0.0,66,0.00,,,0.00,,2013-03-11 19:52:00,
2013-03-11 10:02:00,67.0,55.0,-100.00,NNE,33,0.0,0.0,66,0.00,,,0.00,,2013-03-11 20:02:00,
2013-03-11 10:11:00,70.0,55.0,-100.00,NNE,20,0.0,3.0,59,0.00,,,0.00,,2013-03-11 20:11:00,
2013-03-11 10:33:00,70.0,55.0,-100.00,NNE,20,0.0,3.0,59,0.00,,,0.00,,2013-03-11 20:33:00,
2013-03-11 10:44:00,70.0,55.0,-100.00,NNE,20,0.0,3.0,59,0.00,,,0.00,,2013-03-11 20:44:00,
2013-03-11 10:53:00,70.0,55.0,-100.00,NNE,20,0.0,3.0,59,0.00,,,0.00,,2013-03-11 20:53:00,
2013-03-11 11:02:00,70.0,55.0,-100.00,NNE,20,0.0,3.0,59,0.00,,,0.00,,2013-03-11 21:02:00,
2013-03-11 11:11:00,68.0,54.0,-100.00,NNE,17,0.0,3.0,62,0.00,,,0.00,,2013-03-11 21:11:00,
2013-03-11 11:33:00,68.0,54.0,-100.00,NNE,17,0.0,3.0,62,0.00,,,0.00,,2013-03-11 21:33:00,
2013-03-11 11:44:00,68.0,54.0,-100.00,NNE,17,0.0,3.0,62,0.00,,,0.00,,2013-03-11 21:44:00,
2013-03-11 11:53:00,68.0,54.0,-100.00,NNE,17,0.0,3.0,62,0.00,,,0.00,,2013-03-11 21:53:00,
2013-03-11 12:02:00,68.0,54.0,-100.00,NNE,17,0.0,3.0,62,0.00,,,0.00,,2013-03-11 22:02:00,
2013-03-11 12:11:00,70.0,56.0,-100.00,North,9,0.0,6.0,62,0.00,,,0.00,,2013-03-11 22:11:00,
2013-03-11 12:32:00,70.0,56.0,-100.00,North,9,0.0,6.0,62,0.00,,,0.00,,2013-03-11 22:32:00,
2013-03-11 12:43:00,70.0,56.0,-100.00,North,9,0.0,6.0,62,0.00,,,0.00,,2013-03-11 22:43:00,
2013-03-11 12:53:00,70.0,56.0,-100.00,North,9,0.0,6.0,62,0.00,,,0.00,,2013-03-11 22:53:00,
2013-03-11 13:02:00,70.0,56.0,-100.00,North,9,0.0,6.0,62,0.00,,,0.00,,2013-03-11 23:02:00,
2013-03-11 13:11:00,69.0,56.0,-100.00,NE,46,0.0,5.0,64,0.00,,,0.00,,2013-03-11 23:11:00,
2013-03-11 13:33:00,69.0,56.0,-100.00,NE,46,0.0,5.0,64,0.00,,,0.00,,2013-03-11 23:33:00,
2013-03-11 13:43:00,69.0,56.0,-100.00,NE,46,0.0,5.0,64,0.00,,,0.00,,2013-03-11 23:43:00,
2013-03-11 13:53:00,69.0,56.0,-100.00,NE,46,0.0,5.0,64,0.00,,,0.00,,2013-03-11 23:53:00,
2013-03-11 14:02:00,69.0,56.0,-100.00,NE,46,0.0,5.0,64,0.00,,,0.00,,2013-03-12 00:02:00,
2013-03-11 14:33:00,67.0,55.0,-100.00,North,10,0.0,5.0,66,0.00,,,0.00,,2013-03-12 00:33:00,
2013-03-11 14:43:00,67.0,55.0,-100.00,North,10,0.0,5.0,66,0.00,,,0.00,,2013-03-12 00:43:00,
2013-03-11 14:53:00,67.0,55.0,-100.00,North,10,0.0,5.0,66,0.00,,,0.00,,2013-03-12 00:53:00,
2013-03-11 15:02:00,67.0,55.0,-100.00,North,10,0.0,5.0,66,0.00,,,0.00,,2013-03-12 01:02:00,
2013-03-11 15:11:00,68.0,56.0,-100.00,NNE,12,0.0,5.0,65,0.00,,,0.00,,2013-03-12 01:11:00,
2013-03-11 15:33:00,68.0,56.0,-100.00,NNE,12,0.0,5.0,65,0.00,,,0.00,,2013-03-12 01:33:00,
2013-03-11 15:42:00,68.0,56.0,-100.00,NNE,12,0.0,5.0,65,0.00,,,0.00,,2013-03-12 01:42:00,
2013-03-11 15:52:00,68.0,56.0,-100.00,NNE,12,0.0,5.0,65,0.00,,,0.00,,2013-03-12 01:52:00,
2013-03-11 16:02:00,68.0,56.0,-100.00,NNE,12,0.0,5.0,65,0.00,,,0.00,,2013-03-12 02:02:00,
2013-03-11 16:11:00,66.0,55.0,-100.00,North,11,0.0,6.0,68,0.00,,,0.00,,2013-03-12 02:11:00,
2013-03-11 16:32:00,66.0,55.0,-100.00,North,11,0.0,6.0,68,0.00,,,0.00,,2013-03-12 02:32:00,
2013-03-11 16:43:00,66.0,55.0,-100.00,North,11,0.0,6.0,68,0.00,,,0.00,,2013-03-12 02:43:00,
2013-03-11 16:52:00,66.0,55.0,-100.00,North,11,0.0,6.0,68,0.00,,,0.00,,2013-03-12 02:52:00,
2013-03-11 17:02:00,66.0,55.0,-100.00,North,11,0.0,6.0,68,0.00,,,0.00,,2013-03-12 03:02:00,
2013-03-11 17:11:00,66.0,56.0,-100.00,NE,46,0.0,4.0,69,0.00,,,0.00,,2013-03-12 03:11:00,
2013-03-11 17:42:00,66.0,56.0,-100.00,NE,46,0.0,4.0,69,0.00,,,0.00,,2013-03-12 03:42:00,
2013-03-11 17:52:00,66.0,56.0,-100.00,NE,46,0.0,4.0,69,0.00,,,0.00,,2013-03-12 03:52:00,
2013-03-11 18:02:00,66.0,56.0,-100.00,NE,46,0.0,4.0,69,0.00,,,0.00,,2013-03-12 04:02:00,
2013-03-11 18:11:00,64.0,55.0,-100.00,NNE,28,0.0,3.0,72,0.00,,,0.00,,2013-03-12 04:11:00,
2013-03-11 18:32:00,64.0,55.0,-100.00,NNE,28,0.0,3.0,72,0.00,,,0.00,,2013-03-12 04:32:00,
2013-03-11 18:43:00,64.0,55.0,-100.00,NNE,28,0.0,3.0,72,0.00,,,0.00,,2013-03-12 04:43:00,
2013-03-11 18:52:00,64.0,55.0,-100.00,NNE,28,0.0,3.0,72,0.00,,,0.00,,2013-03-12 04:52:00,
2013-03-11 19:02:00,64.0,55.0,-100.00,NNE,28,0.0,3.0,72,0.00,,,0.00,,2013-03-12 05:02:00,
2013-03-11 19:11:00,61.0,53.0,-100.00,WSW,249,0.0,4.0,76,0.00,,,0.00,,2013-03-12 05:11:00,
2013-03-11 19:32:00,61.0,53.0,-100.00,WSW,249,0.0,4.0,76,0.00,,,0.00,,2013-03-12 05:32:00,
2013-03-11 19:42:00,61.0,53.0,-100.00,WSW,249,0.0,4.0,76,0.00,,,0.00,,2013-03-12 05:42:00,
2013-03-11 19:52:00,61.0,53.0,-100.00,WSW,249,0.0,4.0,76,0.00,,,0.00,,2013-03-12 05:52:00,
2013-03-11 20:02:00,61.0,53.0,-100.00,WSW,249,0.0,4.0,76,0.00,,,0.00,,2013-03-12 06:02:00,
2013-03-11 20:11:00,60.0,52.0,-100.00,NNE,32,0.0,4.0,76,0.00,,,0.00,,2013-03-12 06:11:00,
2013-03-11 20:32:00,60.0,52.0,-100.00,NNE,32,0.0,4.0,76,0.00,,,0.00,,2013-03-12 06:32:00,
2013-03-11 20:42:00,60.0,52.0,-100.00,NNE,32,0.0,4.0,76,0.00,,,0.00,,2013-03-12 06:42:00,
2013-03-11 20:52:00,60.0,52.0,-100.00,NNE,32,0.0,4.0,76,0.00,,,0.00,,2013-03-12 06:52:00,
2013-03-11 21:02:00,60.0,52.0,-100.00,NNE,32,0.0,4.0,76,0.00,,,0.00,,2013-03-12 07:02:00,
2013-03-11 21:11:00,59.0,52.0,-100.00,ENE,71,0.0,5.0,78,0.00,,,0.00,,2013-03-12 07:11:00,
2013-03-11 21:32:00,59.0,52.0,-100.00,ENE,71,0.0,5.0,78,0.00,,,0.00,,2013-03-12 07:32:00,
2013-03-11 21:42:00,59.0,52.0,-100.00,ENE,71,0.0,5.0,78,0.00,,,0.00,,2013-03-12 07:42:00,
2013-03-11 21:52:00,59.0,52.0,-100.00,ENE,71,0.0,5.0,78,0.00,,,0.00,,2013-03-12 07:52:00,
2013-03-11 22:02:00,59.0,52.0,-100.00,ENE,71,0.0,5.0,78,0.00,,,0.00,,2013-03-12 08:02:00,
2013-03-11 22:11:00,61.0,51.0,-100.00,East,87,0.0,5.0,69,0.00,,,0.00,,2013-03-12 08:11:00,
2013-03-11 22:42:00,61.0,51.0,-100.00,East,87,0.0,5.0,69,0.00,,,0.00,,2013-03-12 08:42:00,
2013-03-11 22:52:00,61.0,51.0,-100.00,East,87,0.0,5.0,69,0.00,,,0.00,,2013-03-12 08:52:00,
2013-03-11 23:02:00,61.0,51.0,-100.00,East,87,0.0,5.0,69,0.00,,,0.00,,2013-03-12 09:02:00,
2013-03-11 23:11:00,60.0,48.0,-100.00,ESE,105,0.0,3.0,65,0.00,,,0.00,,2013-03-12 09:11:00,
2013-03-11 23:33:00,60.0,48.0,-100.00,ESE,105,0.0,3.0,65,0.00,,,0.00,,2013-03-12 09:33:00,
2013-03-11 23:42:00,60.0,48.0,-100.00,ESE,105,0.0,3.0,65,0.00,,,0.00,,2013-03-12 09:42:00,
2013-03-11 23:52:00,60.0,48.0,-100.00,ESE,105,0.0,3.0,65,0.00,,,0.00,,2013-03-12 09:52:00,